< < Back
Terminal Aerodrome Forecast


Current Version              Previous Versions:   1  2  3  4  5  6  7  8  9  

Terminal Aerodrome Forecast

726
FTUS42 KTAE 271509 AAA
TAFABY
TAF AMD
KABY 271509Z 2715/2812 24008KT P6SM SCT020 BKN050
     FM280100 VRB03KT P6SM SCT250=

Latest METAR

980
SAUS70 KWBC 272256
MTRABY
METAR KABY 272253Z 23006KT 10SM CLR 34/21 A3002 RMK AO2 SLP162
T03390206


USA.gov is the U.S. government's official web portal to all federal, state and local government web resources and services.